• Join FlightAware (Why Join?)
  • Login
  • US Flag 
Rudolph Flight #1: Scheduled 
08:16PM EST


 

Airport Tracker/Info


-or-


 

Live Flight TrackerFlight Track Log ✈ UAL1116 ✈ 10-Jan-2014 ✈ KEWR - KBOS

Flight Track Log - Related Links

Times and Time Zones

All times are in EST time to prevent confusion due to time zone crossing. See the UAL1116 flight status page for this flight to view local times or setup timezone preferences in your user account.

Time Position Orientation Groundspeed Altitude Reporting Facility
EST Latitude Longitude Course Direction KTS MPH feet Rate Location/Type
04:13PM 40.7167 -74.1500 27° Northeast 164 189 1,400  Level New York TRACON
04:14PM 40.7667 -74.1167 27° Northeast 239 275 3,300 1,680 Climbing New York TRACON
04:17PM 40.8903 -73.9747 41° Northeast 306 352 7,100 1,860 Climbing Boston Center
04:18PM 40.9356 -73.8794 58° Northeast 307 353 9,600 1,980 Climbing Boston Center
04:19PM 40.9978 -73.7592 56° Northeast 331 381 11,200 2,220 Climbing Boston Center
04:20PM 41.0619 -73.6564 50° Northeast 361 415 14,300 2,820 Climbing Boston Center
04:21PM 41.1278 -73.5439 52° Northeast 383 441 16,900 1,800 Climbing Boston Center
04:22PM 41.1708 -73.3975 69° East 398 458 18,000 1,920 Climbing Boston Center
04:23PM 41.2092 -73.2694 68° East 389 448 20,900 1,440 Climbing Boston Center
04:24PM 41.2486 -73.1314 69° East 400 460 21,000  Climbing Boston Center
04:25PM 41.2925 -72.9814 69° East 427 491 21,000  Level Boston Center
04:26PM 41.3350 -72.8344 69° East 426 490 21,000  Level Boston Center
04:27PM 41.3792 -72.6756 70° East 449 517 21,000  Level Boston Center
04:28PM 41.4239 -72.5158 69° East 457 526 21,000  Level Boston Center
04:29PM 41.4686 -72.3592 69° East 453 521 21,000  Level Boston Center
04:30PM 41.5122 -72.2017 70° East 455 524 21,000  Level Boston Center
04:31PM 41.5622 -72.0211 70° East 457 526 21,000 -300 Level Boston Center
04:32PM 41.6039 -71.8675 70° East 446 513 20,400 -840 Descending Boston Center
04:33PM 41.6422 -71.7275 70° East 409 471 19,300 -1,320 Descending Boston Center
04:34PM 41.6803 -71.5889 70° East 401 461 17,700 -2,100 Descending Boston Center
04:35PM 41.7261 -71.4269 69° East 412 474 15,100 -2,160 Descending Boston Center
04:36PM 41.7781 -71.3050 60° Northeast 380 437 13,400 -1,740 Descending Boston Center
04:37PM 41.8283 -71.1878 60° Northeast 366 421 11,600 -1,200 Descending Boston Center
04:38PM 41.8769 -71.0750 60° Northeast 353 406 11,000 -300 Descending Boston Center
04:39PM 41.9275 -70.9569 60° Northeast 341 392 11,000  Level Boston Center
04:40PM 41.9747 -70.8475 60° Northeast 341 392 11,000 -540 Level Boston Center
04:41PM 42.0194 -70.7522 58° Northeast 335 386 10,000 -1,140 Descending Boston Center
04:42PM 42.0756 -70.6675 48° Northeast 307 353 8,700 -1,380 Descending Boston Center
04:43PM 42.1403 -70.6094 34° Northeast 291 335 7,300 -1,440 Descending Boston Center
04:45PM 42.2500 -70.5833 10° North 273 314 5,500 -1,140 Descending KA90
04:45PM 42.3000 -70.5667 14° North 248 285 5,000 -660 Descending KA90
04:46PM 42.3667 -70.5833 350° North 204 235 4,400 -480 Descending KA90
04:48PM 42.4167 -70.6167 334° Northwest 169 194 4,000 -240 Descending KA90
04:49PM 42.4167 -70.6667 270° West 149 171 4,000 -60 Level KA90
04:49PM 42.4106 -70.7128 260° West 149 171 3,900 -420 Descending Boston Center
04:50PM 42.4003 -70.7669 256° West 148 170 3,300 -720 Descending Boston Center
04:51PM 42.3919 -70.8214 258° West 148 170 2,500 -900 Descending Boston Center
04:52PM 42.3833 -70.8833 259° West 145 167 1,600 -840 Descending KA90
04:53PM 42.3667 -70.9167 236° Southwest 122 140 1,000 -720 Descending KA90
04:54PM 42.3667 -70.9667 270° West 129 148 200 -780 Descending KA90